sensor_id;sensor_type;location;lat;lon;timestamp;P1;durP1;ratioP1;P2;durP2;ratioP2
79414;SDS011;68864;44.972;19.612;2023-12-22T00:00:14;25.27;;;16.60;;
79414;SDS011;68864;44.972;19.612;2023-12-22T00:02:42;32.95;;;16.58;;
79414;SDS011;68864;44.972;19.612;2023-12-22T00:05:10;50.70;;;21.55;;
79414;SDS011;68864;44.972;19.612;2023-12-22T00:07:37;37.47;;;19.33;;
79414;SDS011;68864;44.972;19.612;2023-12-22T00:10:04;40.97;;;18.42;;
79414;SDS011;68864;44.972;19.612;2023-12-22T00:12:31;29.67;;;16.33;;
79414;SDS011;68864;44.972;19.612;2023-12-22T00:14:58;29.50;;;16.73;;
79414;SDS011;68864;44.972;19.612;2023-12-22T00:17:25;31.17;;;17.42;;
79414;SDS011;68864;44.972;19.612;2023-12-22T00:19:53;26.85;;;17.02;;
79414;SDS011;68864;44.972;19.612;2023-12-22T00:22:25;26.52;;;16.05;;
79414;SDS011;68864;44.972;19.612;2023-12-22T00:24:52;35.03;;;19.60;;
79414;SDS011;68864;44.972;19.612;2023-12-22T00:27:19;36.90;;;20.38;;
79414;SDS011;68864;44.972;19.612;2023-12-22T00:29:46;37.10;;;21.00;;
79414;SDS011;68864;44.972;19.612;2023-12-22T00:32:12;34.03;;;15.38;;
79414;SDS011;68864;44.972;19.612;2023-12-22T00:34:39;32.33;;;18.20;;
79414;SDS011;68864;44.972;19.612;2023-12-22T00:37:06;31.50;;;17.95;;
79414;SDS011;68864;44.972;19.612;2023-12-22T00:39:34;41.50;;;20.38;;
79414;SDS011;68864;44.972;19.612;2023-12-22T00:42:01;41.13;;;20.25;;
79414;SDS011;68864;44.972;19.612;2023-12-22T00:44:29;32.45;;;18.23;;
79414;SDS011;68864;44.972;19.612;2023-12-22T00:46:56;35.90;;;21.67;;
79414;SDS011;68864;44.972;19.612;2023-12-22T00:49:23;43.25;;;25.65;;
79414;SDS011;68864;44.972;19.612;2023-12-22T00:51:50;34.90;;;16.33;;
79414;SDS011;68864;44.972;19.612;2023-12-22T00:54:17;34.15;;;19.98;;
79414;SDS011;68864;44.972;19.612;2023-12-22T00:56:45;35.70;;;21.58;;
79414;SDS011;68864;44.972;19.612;2023-12-22T00:59:12;47.92;;;22.20;;
79414;SDS011;68864;44.972;19.612;2023-12-22T01:01:39;38.03;;;21.25;;
79414;SDS011;68864;44.972;19.612;2023-12-22T01:04:06;34.55;;;18.25;;
79414;SDS011;68864;44.972;19.612;2023-12-22T01:06:36;33.28;;;17.35;;
79414;SDS011;68864;44.972;19.612;2023-12-22T01:09:04;26.63;;;14.65;;
79414;SDS011;68864;44.972;19.612;2023-12-22T01:11:31;31.08;;;18.23;;
79414;SDS011;68864;44.972;19.612;2023-12-22T01:13:59;25.17;;;14.70;;
79414;SDS011;68864;44.972;19.612;2023-12-22T01:16:26;27.85;;;17.10;;
79414;SDS011;68864;44.972;19.612;2023-12-22T01:18:53;22.10;;;13.90;;
79414;SDS011;68864;44.972;19.612;2023-12-22T01:21:20;25.48;;;14.90;;
79414;SDS011;68864;44.972;19.612;2023-12-22T01:23:47;26.45;;;14.93;;
79414;SDS011;68864;44.972;19.612;2023-12-22T01:26:14;21.67;;;13.65;;
79414;SDS011;68864;44.972;19.612;2023-12-22T01:28:41;23.88;;;15.27;;
79414;SDS011;68864;44.972;19.612;2023-12-22T01:31:09;23.48;;;13.82;;
79414;SDS011;68864;44.972;19.612;2023-12-22T01:33:36;22.17;;;13.13;;
79414;SDS011;68864;44.972;19.612;2023-12-22T01:36:03;22.70;;;15.93;;
79414;SDS011;68864;44.972;19.612;2023-12-22T01:38:30;23.48;;;12.50;;
79414;SDS011;68864;44.972;19.612;2023-12-22T01:40:57;23.80;;;15.10;;
79414;SDS011;68864;44.972;19.612;2023-12-22T01:43:24;28.55;;;15.07;;
79414;SDS011;68864;44.972;19.612;2023-12-22T01:45:52;21.17;;;13.20;;
79414;SDS011;68864;44.972;19.612;2023-12-22T01:48:23;25.45;;;15.73;;
79414;SDS011;68864;44.972;19.612;2023-12-22T01:50:51;27.83;;;15.98;;
79414;SDS011;68864;44.972;19.612;2023-12-22T01:53:19;30.63;;;17.23;;
79414;SDS011;68864;44.972;19.612;2023-12-22T01:55:46;31.27;;;17.67;;
79414;SDS011;68864;44.972;19.612;2023-12-22T01:58:14;29.00;;;16.23;;
79414;SDS011;68864;44.972;19.612;2023-12-22T02:00:41;29.10;;;16.80;;
79414;SDS011;68864;44.972;19.612;2023-12-22T02:03:08;28.63;;;17.30;;
79414;SDS011;68864;44.972;19.612;2023-12-22T02:05:37;28.52;;;17.95;;
79414;SDS011;68864;44.972;19.612;2023-12-22T02:08:04;27.83;;;12.02;;
79414;SDS011;68864;44.972;19.612;2023-12-22T02:10:32;27.67;;;16.67;;
79414;SDS011;68864;44.972;19.612;2023-12-22T02:12:59;23.80;;;14.80;;
79414;SDS011;68864;44.972;19.612;2023-12-22T02:15:26;26.75;;;15.57;;
79414;SDS011;68864;44.972;19.612;2023-12-22T02:17:54;26.98;;;14.73;;
79414;SDS011;68864;44.972;19.612;2023-12-22T02:20:25;27.35;;;15.68;;
79414;SDS011;68864;44.972;19.612;2023-12-22T02:22:54;28.55;;;15.32;;
79414;SDS011;68864;44.972;19.612;2023-12-22T02:25:21;25.52;;;10.90;;
79414;SDS011;68864;44.972;19.612;2023-12-22T02:27:48;23.08;;;15.38;;
79414;SDS011;68864;44.972;19.612;2023-12-22T02:30:18;30.00;;;16.67;;
79414;SDS011;68864;44.972;19.612;2023-12-22T02:32:51;31.92;;;17.83;;
79414;SDS011;68864;44.972;19.612;2023-12-22T02:35:21;27.75;;;12.75;;
79414;SDS011;68864;44.972;19.612;2023-12-22T02:37:51;35.17;;;19.15;;
79414;SDS011;68864;44.972;19.612;2023-12-22T02:40:20;31.65;;;18.92;;
79414;SDS011;68864;44.972;19.612;2023-12-22T02:42:48;31.35;;;17.60;;
79414;SDS011;68864;44.972;19.612;2023-12-22T02:47:44;28.42;;;17.45;;
79414;SDS011;68864;44.972;19.612;2023-12-22T02:52:38;25.10;;;13.73;;
79414;SDS011;68864;44.972;19.612;2023-12-22T02:55:05;23.38;;;14.18;;
79414;SDS011;68864;44.972;19.612;2023-12-22T02:57:35;22.98;;;15.55;;
79414;SDS011;68864;44.972;19.612;2023-12-22T03:00:02;20.73;;;12.15;;
79414;SDS011;68864;44.972;19.612;2023-12-22T03:02:30;20.90;;;14.05;;
79414;SDS011;68864;44.972;19.612;2023-12-22T03:04:57;21.55;;;9.15;;
79414;SDS011;68864;44.972;19.612;2023-12-22T03:07:24;22.58;;;14.35;;
79414;SDS011;68864;44.972;19.612;2023-12-22T03:09:51;20.83;;;12.35;;
79414;SDS011;68864;44.972;19.612;2023-12-22T03:12:17;16.45;;;6.22;;
79414;SDS011;68864;44.972;19.612;2023-12-22T03:14:46;17.05;;;9.95;;
79414;SDS011;68864;44.972;19.612;2023-12-22T03:17:13;18.52;;;10.57;;
79414;SDS011;68864;44.972;19.612;2023-12-22T03:19:39;16.33;;;9.30;;
79414;SDS011;68864;44.972;19.612;2023-12-22T03:22:06;15.40;;;9.43;;
79414;SDS011;68864;44.972;19.612;2023-12-22T03:24:33;11.68;;;5.18;;
79414;SDS011;68864;44.972;19.612;2023-12-22T03:27:02;14.40;;;9.52;;
79414;SDS011;68864;44.972;19.612;2023-12-22T03:31:57;17.38;;;12.25;;
79414;SDS011;68864;44.972;19.612;2023-12-22T03:34:24;17.67;;;10.52;;
79414;SDS011;68864;44.972;19.612;2023-12-22T03:36:51;11.88;;;8.43;;
79414;SDS011;68864;44.972;19.612;2023-12-22T03:39:19;13.43;;;7.93;;
79414;SDS011;68864;44.972;19.612;2023-12-22T03:41:46;15.25;;;8.90;;
79414;SDS011;68864;44.972;19.612;2023-12-22T03:44:12;13.70;;;5.45;;
79414;SDS011;68864;44.972;19.612;2023-12-22T03:46:39;9.60;;;4.40;;
79414;SDS011;68864;44.972;19.612;2023-12-22T03:49:08;12.15;;;8.15;;
79414;SDS011;68864;44.972;19.612;2023-12-22T03:51:35;11.40;;;4.28;;
79414;SDS011;68864;44.972;19.612;2023-12-22T03:54:02;11.48;;;7.53;;
79414;SDS011;68864;44.972;19.612;2023-12-22T03:56:29;11.65;;;7.82;;
79414;SDS011;68864;44.972;19.612;2023-12-22T03:58:56;12.85;;;7.80;;
79414;SDS011;68864;44.972;19.612;2023-12-22T04:01:23;13.52;;;8.13;;
79414;SDS011;68864;44.972;19.612;2023-12-22T04:03:50;12.65;;;7.35;;
79414;SDS011;68864;44.972;19.612;2023-12-22T04:06:19;11.70;;;7.13;;
79414;SDS011;68864;44.972;19.612;2023-12-22T04:08:46;11.32;;;7.78;;
79414;SDS011;68864;44.972;19.612;2023-12-22T04:11:12;14.82;;;9.40;;
79414;SDS011;68864;44.972;19.612;2023-12-22T04:13:39;13.52;;;8.20;;
79414;SDS011;68864;44.972;19.612;2023-12-22T04:16:06;10.63;;;8.45;;
79414;SDS011;68864;44.972;19.612;2023-12-22T04:18:33;11.30;;;7.55;;
79414;SDS011;68864;44.972;19.612;2023-12-22T04:21:00;10.82;;;7.55;;
79414;SDS011;68864;44.972;19.612;2023-12-22T04:25:55;11.35;;;9.35;;
79414;SDS011;68864;44.972;19.612;2023-12-22T04:28:22;15.80;;;10.93;;
79414;SDS011;68864;44.972;19.612;2023-12-22T04:30:49;16.63;;;11.32;;
79414;SDS011;68864;44.972;19.612;2023-12-22T04:33:16;16.58;;;9.57;;
79414;SDS011;68864;44.972;19.612;2023-12-22T04:35:43;18.42;;;12.23;;
79414;SDS011;68864;44.972;19.612;2023-12-22T04:38:10;16.95;;;10.55;;
79414;SDS011;68864;44.972;19.612;2023-12-22T04:40:39;14.57;;;6.53;;
79414;SDS011;68864;44.972;19.612;2023-12-22T04:43:05;14.48;;;9.57;;
79414;SDS011;68864;44.972;19.612;2023-12-22T04:45:32;16.40;;;11.98;;
79414;SDS011;68864;44.972;19.612;2023-12-22T04:47:59;20.40;;;12.48;;
79414;SDS011;68864;44.972;19.612;2023-12-22T04:50:26;50.85;;;26.45;;
79414;SDS011;68864;44.972;19.612;2023-12-22T04:52:53;29.67;;;17.23;;
79414;SDS011;68864;44.972;19.612;2023-12-22T04:55:20;20.13;;;13.27;;
79414;SDS011;68864;44.972;19.612;2023-12-22T04:57:48;21.25;;;13.50;;
79414;SDS011;68864;44.972;19.612;2023-12-22T05:00:15;24.38;;;14.10;;
79414;SDS011;68864;44.972;19.612;2023-12-22T05:02:42;21.05;;;12.60;;
79414;SDS011;68864;44.972;19.612;2023-12-22T05:05:09;21.92;;;13.30;;
79414;SDS011;68864;44.972;19.612;2023-12-22T05:07:37;21.90;;;14.57;;
79414;SDS011;68864;44.972;19.612;2023-12-22T05:10:05;21.35;;;14.40;;
79414;SDS011;68864;44.972;19.612;2023-12-22T05:12:32;20.90;;;12.93;;
79414;SDS011;68864;44.972;19.612;2023-12-22T05:15:01;23.60;;;14.68;;
79414;SDS011;68864;44.972;19.612;2023-12-22T05:17:28;34.63;;;14.13;;
79414;SDS011;68864;44.972;19.612;2023-12-22T05:19:54;42.92;;;21.90;;
79414;SDS011;68864;44.972;19.612;2023-12-22T05:22:21;30.83;;;16.98;;
79414;SDS011;68864;44.972;19.612;2023-12-22T05:24:48;34.05;;;17.23;;
79414;SDS011;68864;44.972;19.612;2023-12-22T05:27:15;32.85;;;14.50;;
79414;SDS011;68864;44.972;19.612;2023-12-22T05:29:42;37.53;;;22.50;;
79414;SDS011;68864;44.972;19.612;2023-12-22T05:32:10;21.83;;;14.88;;
79414;SDS011;68864;44.972;19.612;2023-12-22T05:34:37;24.17;;;14.25;;
79414;SDS011;68864;44.972;19.612;2023-12-22T05:37:04;19.67;;;12.55;;
79414;SDS011;68864;44.972;19.612;2023-12-22T05:39:31;24.52;;;15.30;;
79414;SDS011;68864;44.972;19.612;2023-12-22T05:41:58;21.23;;;11.73;;
79414;SDS011;68864;44.972;19.612;2023-12-22T05:44:25;17.80;;;11.93;;
79414;SDS011;68864;44.972;19.612;2023-12-22T05:46:54;15.02;;;10.73;;
79414;SDS011;68864;44.972;19.612;2023-12-22T05:49:23;16.42;;;12.13;;
79414;SDS011;68864;44.972;19.612;2023-12-22T05:51:50;16.23;;;8.65;;
79414;SDS011;68864;44.972;19.612;2023-12-22T05:54:17;17.88;;;11.68;;
79414;SDS011;68864;44.972;19.612;2023-12-22T05:56:45;17.10;;;11.25;;
79414;SDS011;68864;44.972;19.612;2023-12-22T05:59:12;18.92;;;12.45;;
79414;SDS011;68864;44.972;19.612;2023-12-22T06:01:39;18.80;;;12.10;;
79414;SDS011;68864;44.972;19.612;2023-12-22T06:04:06;19.27;;;13.95;;
79414;SDS011;68864;44.972;19.612;2023-12-22T06:06:35;18.58;;;11.18;;
79414;SDS011;68864;44.972;19.612;2023-12-22T06:09:03;17.30;;;12.95;;
79414;SDS011;68864;44.972;19.612;2023-12-22T06:11:30;14.52;;;7.63;;
79414;SDS011;68864;44.972;19.612;2023-12-22T06:13:57;16.73;;;14.95;;
79414;SDS011;68864;44.972;19.612;2023-12-22T06:16:24;20.17;;;14.25;;
79414;SDS011;68864;44.972;19.612;2023-12-22T06:18:50;21.98;;;15.77;;
79414;SDS011;68864;44.972;19.612;2023-12-22T06:21:17;37.45;;;21.90;;
79414;SDS011;68864;44.972;19.612;2023-12-22T06:23:46;77.88;;;37.95;;
79414;SDS011;68864;44.972;19.612;2023-12-22T06:26:13;66.78;;;32.00;;
79414;SDS011;68864;44.972;19.612;2023-12-22T06:28:40;36.53;;;19.20;;
79414;SDS011;68864;44.972;19.612;2023-12-22T06:31:07;31.67;;;18.70;;
79414;SDS011;68864;44.972;19.612;2023-12-22T06:33:34;43.75;;;15.70;;
79414;SDS011;68864;44.972;19.612;2023-12-22T06:36:01;21.02;;;10.93;;
79414;SDS011;68864;44.972;19.612;2023-12-22T06:38:28;25.50;;;14.80;;
79414;SDS011;68864;44.972;19.612;2023-12-22T06:40:56;20.83;;;14.07;;
79414;SDS011;68864;44.972;19.612;2023-12-22T06:43:23;22.60;;;14.95;;
79414;SDS011;68864;44.972;19.612;2023-12-22T06:45:49;27.70;;;17.70;;
79414;SDS011;68864;44.972;19.612;2023-12-22T06:48:20;29.40;;;17.02;;
79414;SDS011;68864;44.972;19.612;2023-12-22T06:50:47;20.20;;;13.02;;
79414;SDS011;68864;44.972;19.612;2023-12-22T06:53:13;20.17;;;13.32;;
79414;SDS011;68864;44.972;19.612;2023-12-22T06:55:40;19.30;;;11.23;;
79414;SDS011;68864;44.972;19.612;2023-12-22T06:58:09;17.33;;;12.50;;
79414;SDS011;68864;44.972;19.612;2023-12-22T07:00:36;20.27;;;11.60;;
79414;SDS011;68864;44.972;19.612;2023-12-22T07:03:03;18.27;;;11.82;;
79414;SDS011;68864;44.972;19.612;2023-12-22T07:05:33;20.50;;;12.02;;
79414;SDS011;68864;44.972;19.612;2023-12-22T07:08:04;16.73;;;12.35;;
79414;SDS011;68864;44.972;19.612;2023-12-22T07:10:32;17.90;;;12.38;;
79414;SDS011;68864;44.972;19.612;2023-12-22T07:15:28;25.60;;;15.05;;
79414;SDS011;68864;44.972;19.612;2023-12-22T07:17:55;24.42;;;15.10;;
79414;SDS011;68864;44.972;19.612;2023-12-22T07:20:22;28.13;;;15.18;;
79414;SDS011;68864;44.972;19.612;2023-12-22T07:22:49;21.67;;;13.50;;
79414;SDS011;68864;44.972;19.612;2023-12-22T07:25:19;19.65;;;14.35;;
79414;SDS011;68864;44.972;19.612;2023-12-22T07:27:46;20.15;;;11.63;;
79414;SDS011;68864;44.972;19.612;2023-12-22T07:30:13;18.08;;;11.18;;
79414;SDS011;68864;44.972;19.612;2023-12-22T07:32:44;17.15;;;11.00;;
79414;SDS011;68864;44.972;19.612;2023-12-22T07:35:14;16.95;;;11.60;;
79414;SDS011;68864;44.972;19.612;2023-12-22T07:37:41;21.02;;;12.63;;
79414;SDS011;68864;44.972;19.612;2023-12-22T07:40:08;21.92;;;14.48;;
79414;SDS011;68864;44.972;19.612;2023-12-22T07:42:36;22.85;;;14.10;;
79414;SDS011;68864;44.972;19.612;2023-12-22T07:45:04;21.75;;;13.80;;
79414;SDS011;68864;44.972;19.612;2023-12-22T07:47:32;25.80;;;17.52;;
79414;SDS011;68864;44.972;19.612;2023-12-22T07:50:03;17.75;;;9.02;;
79414;SDS011;68864;44.972;19.612;2023-12-22T07:52:33;20.10;;;12.95;;
79414;SDS011;68864;44.972;19.612;2023-12-22T07:55:03;19.35;;;12.73;;
79414;SDS011;68864;44.972;19.612;2023-12-22T07:57:31;18.33;;;8.18;;
79414;SDS011;68864;44.972;19.612;2023-12-22T07:59:58;21.83;;;14.05;;
79414;SDS011;68864;44.972;19.612;2023-12-22T08:04:52;18.55;;;11.13;;
79414;SDS011;68864;44.972;19.612;2023-12-22T08:07:21;21.13;;;11.65;;
79414;SDS011;68864;44.972;19.612;2023-12-22T08:09:48;16.88;;;8.93;;
79414;SDS011;68864;44.972;19.612;2023-12-22T08:12:15;21.35;;;12.75;;
79414;SDS011;68864;44.972;19.612;2023-12-22T08:14:41;30.88;;;16.85;;
79414;SDS011;68864;44.972;19.612;2023-12-22T08:17:07;26.08;;;16.35;;
79414;SDS011;68864;44.972;19.612;2023-12-22T08:19:35;49.05;;;28.00;;
79414;SDS011;68864;44.972;19.612;2023-12-22T08:22:03;30.38;;;18.25;;
79414;SDS011;68864;44.972;19.612;2023-12-22T08:26:58;34.88;;;19.92;;
79414;SDS011;68864;44.972;19.612;2023-12-22T08:29:25;39.05;;;21.55;;
79414;SDS011;68864;44.972;19.612;2023-12-22T08:31:52;38.90;;;21.98;;
79414;SDS011;68864;44.972;19.612;2023-12-22T08:34:19;26.10;;;13.60;;
79414;SDS011;68864;44.972;19.612;2023-12-22T08:36:46;20.70;;;14.77;;
79414;SDS011;68864;44.972;19.612;2023-12-22T08:39:13;17.35;;;12.23;;
79414;SDS011;68864;44.972;19.612;2023-12-22T08:41:41;18.00;;;12.07;;
79414;SDS011;68864;44.972;19.612;2023-12-22T08:44:08;18.50;;;12.32;;
79414;SDS011;68864;44.972;19.612;2023-12-22T08:46:35;20.35;;;13.40;;
79414;SDS011;68864;44.972;19.612;2023-12-22T08:49:03;19.60;;;13.50;;
79414;SDS011;68864;44.972;19.612;2023-12-22T08:51:30;40.95;;;21.80;;
79414;SDS011;68864;44.972;19.612;2023-12-22T08:53:58;38.88;;;23.20;;
79414;SDS011;68864;44.972;19.612;2023-12-22T08:56:25;44.67;;;25.75;;
79414;SDS011;68864;44.972;19.612;2023-12-22T08:58:54;33.92;;;19.50;;
79414;SDS011;68864;44.972;19.612;2023-12-22T09:01:23;33.30;;;18.55;;
79414;SDS011;68864;44.972;19.612;2023-12-22T09:03:51;33.30;;;17.33;;
79414;SDS011;68864;44.972;19.612;2023-12-22T09:06:18;25.38;;;16.23;;
79414;SDS011;68864;44.972;19.612;2023-12-22T09:08:47;28.27;;;16.63;;
79414;SDS011;68864;44.972;19.612;2023-12-22T09:11:15;26.42;;;16.08;;
79414;SDS011;68864;44.972;19.612;2023-12-22T09:13:43;26.25;;;16.70;;
79414;SDS011;68864;44.972;19.612;2023-12-22T09:18:40;25.65;;;14.93;;
79414;SDS011;68864;44.972;19.612;2023-12-22T09:21:07;32.80;;;22.38;;
79414;SDS011;68864;44.972;19.612;2023-12-22T09:23:34;24.15;;;16.27;;
79414;SDS011;68864;44.972;19.612;2023-12-22T09:26:01;20.13;;;13.98;;
79414;SDS011;68864;44.972;19.612;2023-12-22T09:28:29;20.98;;;13.73;;
79414;SDS011;68864;44.972;19.612;2023-12-22T09:30:56;18.08;;;12.68;;
79414;SDS011;68864;44.972;19.612;2023-12-22T09:33:25;14.65;;;11.40;;
79414;SDS011;68864;44.972;19.612;2023-12-22T09:35:51;15.27;;;11.15;;
79414;SDS011;68864;44.972;19.612;2023-12-22T09:38:18;32.85;;;21.60;;
79414;SDS011;68864;44.972;19.612;2023-12-22T09:40:47;38.78;;;27.23;;
79414;SDS011;68864;44.972;19.612;2023-12-22T09:43:14;39.50;;;24.45;;
79414;SDS011;68864;44.972;19.612;2023-12-22T09:45:43;35.25;;;22.90;;
79414;SDS011;68864;44.972;19.612;2023-12-22T09:48:12;27.17;;;18.40;;
79414;SDS011;68864;44.972;19.612;2023-12-22T09:50:44;27.13;;;18.73;;
79414;SDS011;68864;44.972;19.612;2023-12-22T09:53:11;31.85;;;21.73;;
79414;SDS011;68864;44.972;19.612;2023-12-22T09:55:40;28.48;;;19.77;;
79414;SDS011;68864;44.972;19.612;2023-12-22T09:58:11;25.15;;;13.63;;
79414;SDS011;68864;44.972;19.612;2023-12-22T10:00:40;42.28;;;26.73;;
79414;SDS011;68864;44.972;19.612;2023-12-22T10:03:09;36.95;;;19.25;;
79414;SDS011;68864;44.972;19.612;2023-12-22T10:05:37;39.15;;;25.58;;
79414;SDS011;68864;44.972;19.612;2023-12-22T10:08:06;29.95;;;19.02;;
79414;SDS011;68864;44.972;19.612;2023-12-22T10:10:35;26.70;;;18.15;;
79414;SDS011;68864;44.972;19.612;2023-12-22T10:13:04;23.05;;;17.08;;
79414;SDS011;68864;44.972;19.612;2023-12-22T10:15:34;23.02;;;15.85;;
79414;SDS011;68864;44.972;19.612;2023-12-22T10:18:05;21.50;;;14.90;;
79414;SDS011;68864;44.972;19.612;2023-12-22T10:20:32;23.30;;;17.23;;
79414;SDS011;68864;44.972;19.612;2023-12-22T10:23:00;26.35;;;18.80;;
79414;SDS011;68864;44.972;19.612;2023-12-22T10:25:29;21.80;;;13.27;;
79414;SDS011;68864;44.972;19.612;2023-12-22T10:27:57;18.35;;;9.32;;
79414;SDS011;68864;44.972;19.612;2023-12-22T10:30:24;21.17;;;15.18;;
79414;SDS011;68864;44.972;19.612;2023-12-22T10:32:53;51.47;;;30.23;;
79414;SDS011;68864;44.972;19.612;2023-12-22T10:35:20;114.30;;;60.78;;
79414;SDS011;68864;44.972;19.612;2023-12-22T10:37:48;45.13;;;36.80;;
79414;SDS011;68864;44.972;19.612;2023-12-22T10:40:17;49.13;;;44.20;;
79414;SDS011;68864;44.972;19.612;2023-12-22T10:42:46;29.40;;;24.05;;
79414;SDS011;68864;44.972;19.612;2023-12-22T10:45:14;19.65;;;11.48;;
79414;SDS011;68864;44.972;19.612;2023-12-22T10:47:42;23.45;;;15.10;;
79414;SDS011;68864;44.972;19.612;2023-12-22T10:50:11;22.13;;;14.20;;
79414;SDS011;68864;44.972;19.612;2023-12-22T10:52:39;25.15;;;17.90;;
79414;SDS011;68864;44.972;19.612;2023-12-22T10:55:06;22.08;;;15.25;;
79414;SDS011;68864;44.972;19.612;2023-12-22T10:57:34;22.77;;;14.93;;
79414;SDS011;68864;44.972;19.612;2023-12-22T11:00:05;22.15;;;14.00;;
79414;SDS011;68864;44.972;19.612;2023-12-22T11:02:34;18.63;;;14.80;;
79414;SDS011;68864;44.972;19.612;2023-12-22T11:05:02;16.40;;;12.07;;
79414;SDS011;68864;44.972;19.612;2023-12-22T11:07:32;17.73;;;12.02;;
79414;SDS011;68864;44.972;19.612;2023-12-22T11:10:02;14.35;;;10.57;;
79414;SDS011;68864;44.972;19.612;2023-12-22T11:12:31;15.23;;;10.52;;
79414;SDS011;68864;44.972;19.612;2023-12-22T11:15:00;14.57;;;10.75;;
79414;SDS011;68864;44.972;19.612;2023-12-22T11:17:30;20.33;;;12.57;;
79414;SDS011;68864;44.972;19.612;2023-12-22T11:19:58;27.25;;;16.70;;
79414;SDS011;68864;44.972;19.612;2023-12-22T11:22:26;40.13;;;22.90;;
79414;SDS011;68864;44.972;19.612;2023-12-22T11:24:53;34.70;;;21.50;;
79414;SDS011;68864;44.972;19.612;2023-12-22T11:27:23;22.92;;;14.70;;
79414;SDS011;68864;44.972;19.612;2023-12-22T11:29:53;26.95;;;17.50;;
79414;SDS011;68864;44.972;19.612;2023-12-22T11:32:21;22.38;;;15.32;;
79414;SDS011;68864;44.972;19.612;2023-12-22T11:34:49;23.60;;;15.88;;
79414;SDS011;68864;44.972;19.612;2023-12-22T11:37:17;17.95;;;13.93;;
79414;SDS011;68864;44.972;19.612;2023-12-22T11:39:45;14.88;;;10.95;;
79414;SDS011;68864;44.972;19.612;2023-12-22T11:42:14;13.65;;;10.38;;
79414;SDS011;68864;44.972;19.612;2023-12-22T11:44:44;15.70;;;10.52;;
79414;SDS011;68864;44.972;19.612;2023-12-22T11:47:12;34.60;;;21.00;;
79414;SDS011;68864;44.972;19.612;2023-12-22T11:49:40;25.13;;;15.98;;
79414;SDS011;68864;44.972;19.612;2023-12-22T11:52:12;29.23;;;19.17;;
79414;SDS011;68864;44.972;19.612;2023-12-22T11:54:43;28.83;;;19.33;;
79414;SDS011;68864;44.972;19.612;2023-12-22T11:59:56;24.10;;;14.63;;
79414;SDS011;68864;44.972;19.612;2023-12-22T12:02:23;46.20;;;24.92;;
79414;SDS011;68864;44.972;19.612;2023-12-22T12:04:51;20.58;;;13.75;;
79414;SDS011;68864;44.972;19.612;2023-12-22T12:10:09;14.55;;;9.48;;
79414;SDS011;68864;44.972;19.612;2023-12-22T12:12:37;12.55;;;8.52;;
79414;SDS011;68864;44.972;19.612;2023-12-22T12:15:08;11.52;;;6.50;;
79414;SDS011;68864;44.972;19.612;2023-12-22T12:17:39;10.18;;;5.82;;
79414;SDS011;68864;44.972;19.612;2023-12-22T12:20:08;11.23;;;6.88;;
79414;SDS011;68864;44.972;19.612;2023-12-22T12:22:36;15.80;;;9.32;;
79414;SDS011;68864;44.972;19.612;2023-12-22T12:25:10;14.25;;;10.68;;
79414;SDS011;68864;44.972;19.612;2023-12-22T12:27:37;9.68;;;6.50;;
79414;SDS011;68864;44.972;19.612;2023-12-22T12:30:12;11.25;;;6.38;;
79414;SDS011;68864;44.972;19.612;2023-12-22T12:32:43;27.35;;;12.82;;
79414;SDS011;68864;44.972;19.612;2023-12-22T12:35:11;72.68;;;64.22;;
79414;SDS011;68864;44.972;19.612;2023-12-22T12:40:06;12.45;;;4.28;;
79414;SDS011;68864;44.972;19.612;2023-12-22T12:42:36;16.85;;;7.85;;
79414;SDS011;68864;44.972;19.612;2023-12-22T12:45:04;10.88;;;6.88;;
79414;SDS011;68864;44.972;19.612;2023-12-22T12:47:32;9.20;;;6.78;;
79414;SDS011;68864;44.972;19.612;2023-12-22T12:49:59;9.70;;;7.13;;
79414;SDS011;68864;44.972;19.612;2023-12-22T12:52:27;7.93;;;5.40;;
79414;SDS011;68864;44.972;19.612;2023-12-22T12:54:54;8.63;;;5.15;;
79414;SDS011;68864;44.972;19.612;2023-12-22T12:57:23;11.20;;;5.30;;
79414;SDS011;68864;44.972;19.612;2023-12-22T13:02:18;7.93;;;5.45;;
79414;SDS011;68864;44.972;19.612;2023-12-22T13:04:47;7.88;;;3.95;;
79414;SDS011;68864;44.972;19.612;2023-12-22T13:07:22;9.85;;;4.10;;
79414;SDS011;68864;44.972;19.612;2023-12-22T13:09:50;8.40;;;5.63;;
79414;SDS011;68864;44.972;19.612;2023-12-22T13:12:19;10.38;;;4.95;;
79414;SDS011;68864;44.972;19.612;2023-12-22T13:14:46;7.93;;;5.28;;
79414;SDS011;68864;44.972;19.612;2023-12-22T13:17:15;7.70;;;4.35;;
79414;SDS011;68864;44.972;19.612;2023-12-22T13:19:42;10.02;;;5.45;;
79414;SDS011;68864;44.972;19.612;2023-12-22T13:22:09;6.80;;;3.53;;
79414;SDS011;68864;44.972;19.612;2023-12-22T13:24:36;4.10;;;2.08;;
79414;SDS011;68864;44.972;19.612;2023-12-22T13:27:03;9.20;;;3.85;;
79414;SDS011;68864;44.972;19.612;2023-12-22T13:29:41;5.95;;;3.08;;
79414;SDS011;68864;44.972;19.612;2023-12-22T13:32:16;5.38;;;3.13;;
79414;SDS011;68864;44.972;19.612;2023-12-22T13:37:14;5.13;;;2.83;;
79414;SDS011;68864;44.972;19.612;2023-12-22T13:39:41;6.97;;;2.97;;
79414;SDS011;68864;44.972;19.612;2023-12-22T13:44:42;5.55;;;3.03;;
79414;SDS011;68864;44.972;19.612;2023-12-22T13:47:09;7.55;;;3.80;;
79414;SDS011;68864;44.972;19.612;2023-12-22T13:52:05;5.22;;;4.07;;
79414;SDS011;68864;44.972;19.612;2023-12-22T13:54:33;6.70;;;4.32;;
79414;SDS011;68864;44.972;19.612;2023-12-22T13:59:30;3.03;;;0.50;;
79414;SDS011;68864;44.972;19.612;2023-12-22T14:01:58;5.82;;;3.35;;
79414;SDS011;68864;44.972;19.612;2023-12-22T14:04:25;8.35;;;5.13;;
79414;SDS011;68864;44.972;19.612;2023-12-22T14:06:54;8.27;;;5.05;;
79414;SDS011;68864;44.972;19.612;2023-12-22T14:09:20;6.93;;;4.82;;
79414;SDS011;68864;44.972;19.612;2023-12-22T14:11:49;8.63;;;6.00;;
79414;SDS011;68864;44.972;19.612;2023-12-22T14:14:17;7.13;;;3.33;;
79414;SDS011;68864;44.972;19.612;2023-12-22T14:16:44;7.00;;;2.15;;
79414;SDS011;68864;44.972;19.612;2023-12-22T14:19:11;9.30;;;5.47;;
79414;SDS011;68864;44.972;19.612;2023-12-22T14:21:38;7.90;;;3.72;;
79414;SDS011;68864;44.972;19.612;2023-12-22T14:24:07;7.50;;;4.82;;
79414;SDS011;68864;44.972;19.612;2023-12-22T14:29:19;14.75;;;8.43;;
79414;SDS011;68864;44.972;19.612;2023-12-22T14:31:47;8.05;;;5.32;;
79414;SDS011;68864;44.972;19.612;2023-12-22T14:34:14;13.25;;;8.95;;
79414;SDS011;68864;44.972;19.612;2023-12-22T14:36:42;9.10;;;4.78;;
79414;SDS011;68864;44.972;19.612;2023-12-22T14:39:10;9.32;;;4.32;;
79414;SDS011;68864;44.972;19.612;2023-12-22T14:41:38;11.73;;;6.47;;
79414;SDS011;68864;44.972;19.612;2023-12-22T14:44:07;9.15;;;5.65;;
79414;SDS011;68864;44.972;19.612;2023-12-22T14:46:36;9.68;;;4.00;;
79414;SDS011;68864;44.972;19.612;2023-12-22T14:49:04;6.95;;;3.92;;
79414;SDS011;68864;44.972;19.612;2023-12-22T14:51:34;8.18;;;3.95;;
79414;SDS011;68864;44.972;19.612;2023-12-22T14:54:02;9.48;;;5.05;;
79414;SDS011;68864;44.972;19.612;2023-12-22T14:58:57;8.48;;;4.55;;
79414;SDS011;68864;44.972;19.612;2023-12-22T15:01:24;8.68;;;4.35;;